createdAt,value
2019-06-20T00:00:56.104Z,53.72
2019-06-20T00:06:01.352Z,54.48
2019-06-20T00:11:06.880Z,55.04
2019-06-20T00:16:12.163Z,54.97
2019-06-20T00:21:17.435Z,55.00
2019-06-20T00:26:22.801Z,55.02
2019-06-20T00:31:28.060Z,54.57
2019-06-20T00:36:33.476Z,54.04
2019-06-20T00:41:38.736Z,55.42
2019-06-20T00:46:44.607Z,57.38
2019-06-20T00:51:49.824Z,57.24
2019-06-20T00:56:55.438Z,59.11
2019-06-20T01:02:01.439Z,61.12
2019-06-20T01:07:07.748Z,61.44
2019-06-20T01:12:13.016Z,63.10
2019-06-20T01:17:18.645Z,61.79
2019-06-20T01:22:23.881Z,60.66
2019-06-20T01:27:29.151Z,62.06
2019-06-20T01:32:35.478Z,62.26
2019-06-20T01:37:40.839Z,62.93
2019-06-20T01:42:46.085Z,63.92
2019-06-20T01:47:51.345Z,64.28
2019-06-20T01:52:56.739Z,63.33
2019-06-20T01:58:02.375Z,63.74
2019-06-20T02:03:07.635Z,63.48
2019-06-20T02:08:12.875Z,62.62
2019-06-20T02:13:18.127Z,62.74
2019-06-20T02:18:23.393Z,63.23
2019-06-20T02:23:28.763Z,64.30
2019-06-20T02:28:34.013Z,64.22
2019-06-20T02:33:39.370Z,64.54
2019-06-20T02:38:45.296Z,65.72
2019-06-20T02:43:50.583Z,65.01
2019-06-20T02:48:55.833Z,64.79
2019-06-20T02:54:01.097Z,66.23
2019-06-20T02:59:06.498Z,66.25
2019-06-20T03:04:11.843Z,66.83
2019-06-20T03:09:18.425Z,66.17
2019-06-20T03:14:23.903Z,67.00
2019-06-20T03:19:29.184Z,69.94
2019-06-20T03:24:34.436Z,71.31
2019-06-20T03:29:40.242Z,69.31
2019-06-20T03:34:45.717Z,70.17
2019-06-20T03:39:51.079Z,69.35
2019-06-20T03:45:02.026Z,68.51
2019-06-20T03:50:03.428Z,70.85
2019-06-20T03:55:09.322Z,72.11
2019-06-20T04:00:15.275Z,73.95
2019-06-20T04:05:20.855Z,72.43
2019-06-20T04:10:26.531Z,74.45
2019-06-20T04:15:31.903Z,76.07
2019-06-20T04:20:37.629Z,75.89
2019-06-20T04:25:42.887Z,76.89
2019-06-20T04:30:48.150Z,78.02
2019-06-20T04:35:53.417Z,77.71
2019-06-20T04:40:58.685Z,77.77
2019-06-20T04:46:27.995Z,79.43
2019-06-20T04:51:33.257Z,78.25
2019-06-20T04:56:38.870Z,77.18
2019-06-20T05:01:44.151Z,80.10
2019-06-20T05:06:52.926Z,81.21
2019-06-20T05:11:58.618Z,82.24
2019-06-20T05:17:07.151Z,81.50
2019-06-20T05:22:11.221Z,81.37
2019-06-20T05:27:16.525Z,82.08
2019-06-20T05:32:21.781Z,82.53
2019-06-20T05:37:27.081Z,83.02
2019-06-20T05:42:32.332Z,82.73
2019-06-20T05:47:37.601Z,81.58
2019-06-20T05:52:42.899Z,80.43
2019-06-20T05:57:48.630Z,80.68
2019-06-20T06:02:54.015Z,80.25
2019-06-20T06:07:59.266Z,78.89
2019-06-20T06:13:04.758Z,79.02
2019-06-20T06:18:10.389Z,78.07
2019-06-20T06:23:15.951Z,77.80
2019-06-20T06:28:21.380Z,77.47
2019-06-20T06:33:27.427Z,76.71
2019-06-20T06:38:34.101Z,76.05
2019-06-20T06:43:42.063Z,75.95
2019-06-20T06:48:46.338Z,74.59
2019-06-20T06:53:51.632Z,74.48
2019-06-20T06:58:57.270Z,74.55
2019-06-20T07:04:02.515Z,73.63
2019-06-20T07:09:08.788Z,73.03
2019-06-20T07:14:14.044Z,72.87
2019-06-20T07:19:19.445Z,72.89
2019-06-20T07:24:24.742Z,70.95
2019-06-20T07:29:30.020Z,71.52
2019-06-20T07:34:35.580Z,70.94
2019-06-20T07:39:40.839Z,69.94
2019-06-20T07:44:46.837Z,68.88
2019-06-20T07:49:52.102Z,68.37
2019-06-20T07:54:57.370Z,69.21
2019-06-20T08:00:02.950Z,70.08
2019-06-20T08:05:08.679Z,67.39
2019-06-20T08:10:14.553Z,64.66
2019-06-20T08:15:19.919Z,65.16
2019-06-20T08:20:26.641Z,63.38
2019-06-20T08:25:32.237Z,64.28
2019-06-20T08:30:39.160Z,62.98
2019-06-20T08:35:44.824Z,63.28
2019-06-20T08:40:50.696Z,62.99
2019-06-20T08:45:57.850Z,62.91
2019-06-20T08:51:04.529Z,63.05
2019-06-20T08:56:09.855Z,62.37
2019-06-20T09:01:15.156Z,62.98
2019-06-20T09:06:20.410Z,62.53
2019-06-20T09:11:25.670Z,62.70
2019-06-20T09:16:30.924Z,63.04
2019-06-20T09:21:36.181Z,63.59
2019-06-20T09:26:41.439Z,62.70
2019-06-20T09:31:46.749Z,63.09
2019-06-20T09:36:53.634Z,62.97
2019-06-20T09:41:58.953Z,63.17
2019-06-20T09:47:04.720Z,61.87
2019-06-20T09:52:10.249Z,62.58
2019-06-20T09:57:15.502Z,61.00
2019-06-20T10:02:21.094Z,61.39
2019-06-20T10:07:26.717Z,60.98
2019-06-20T10:12:32.468Z,58.79
2019-06-20T10:17:37.772Z,58.33
2019-06-20T10:22:44.047Z,57.73
2019-06-20T10:27:51.267Z,57.94
2019-06-20T10:32:57.794Z,57.88
2019-06-20T10:38:03.641Z,59.21
2019-06-20T10:43:09.876Z,58.59
2019-06-20T10:48:15.585Z,56.43
2019-06-20T10:53:20.859Z,55.12
2019-06-20T10:58:26.447Z,54.62
2019-06-20T11:03:31.707Z,53.28
2019-06-20T11:08:37.299Z,51.52
2019-06-20T11:13:42.675Z,51.32
2019-06-20T11:18:48.825Z,51.12
2019-06-20T11:23:54.441Z,51.75
2019-06-20T11:28:59.711Z,51.19
2019-06-20T11:34:04.992Z,51.67
2019-06-20T11:39:10.764Z,50.08
2019-06-20T11:44:16.038Z,51.76
2019-06-20T11:49:21.319Z,51.34
2019-06-20T11:54:26.906Z,49.73
2019-06-20T11:59:32.526Z,48.73
2019-06-20T12:04:40.047Z,48.44
2019-06-20T12:09:46.563Z,49.31
2019-06-20T12:14:52.877Z,49.39
2019-06-20T12:19:58.189Z,49.92
2019-06-20T12:25:03.508Z,48.60
2019-06-20T12:30:09.586Z,48.45
2019-06-20T12:35:15.713Z,48.58
2019-06-20T12:40:21.662Z,49.85
2019-06-20T12:45:26.913Z,47.56
2019-06-20T12:50:32.166Z,46.20
2019-06-20T12:55:38.923Z,47.78
2019-06-20T13:00:46.602Z,47.13
2019-06-20T13:05:51.979Z,48.57
2019-06-20T13:10:57.601Z,48.53
2019-06-20T13:16:03.231Z,48.75
2019-06-20T13:21:08.801Z,48.66
2019-06-20T13:26:14.063Z,49.22
2019-06-20T13:31:20.225Z,49.11
2019-06-20T13:36:25.906Z,48.56
2019-06-20T13:41:31.167Z,48.74
2019-06-20T13:46:36.443Z,48.13
2019-06-20T13:51:41.993Z,47.13
2019-06-20T13:56:47.614Z,46.95
2019-06-20T14:02:05.815Z,45.02
2019-06-20T14:07:01.198Z,44.01
2019-06-20T14:12:06.471Z,44.88
2019-06-20T14:17:11.733Z,46.74
2019-06-20T14:22:17.018Z,46.96
2019-06-20T14:27:22.312Z,45.71
2019-06-20T14:32:27.575Z,45.64
2019-06-20T14:37:34.235Z,42.83
2019-06-20T14:42:40.263Z,42.92
2019-06-20T14:47:45.510Z,42.92
2019-06-20T14:52:52.199Z,44.62
2019-06-20T14:57:57.755Z,44.07
2019-06-20T15:03:03.202Z,45.82
2019-06-20T15:08:08.967Z,44.58
2019-06-20T15:13:15.142Z,44.09
2019-06-20T15:18:21.449Z,42.00
2019-06-20T15:23:27.393Z,42.83
2019-06-20T15:28:32.987Z,44.85
2019-06-20T15:33:38.383Z,46.18
2019-06-20T15:38:44.335Z,46.26
2019-06-20T15:43:51.650Z,48.43
2019-06-20T15:48:59.814Z,49.87
2019-06-20T15:54:04.297Z,49.99
2019-06-20T15:59:10.956Z,52.21
2019-06-20T16:04:16.252Z,58.60
2019-06-20T16:09:21.600Z,62.35
2019-06-20T16:14:26.852Z,69.53
2019-06-20T16:19:32.557Z,68.55
2019-06-20T16:24:38.092Z,66.05
2019-06-20T16:29:44.264Z,59.92
2019-06-20T16:34:49.496Z,61.63
2019-06-20T16:39:55.126Z,59.69
2019-06-20T16:45:00.720Z,60.44
2019-06-20T16:50:06.209Z,59.43
2019-06-20T16:55:11.671Z,62.44
2019-06-20T17:00:18.312Z,64.38
2019-06-20T17:05:24.118Z,65.59
2019-06-20T17:10:29.576Z,66.92
2019-06-20T17:15:34.944Z,69.21
2019-06-20T17:20:40.221Z,69.19
2019-06-20T17:25:46.578Z,68.09
2019-06-20T17:30:52.205Z,67.90
2019-06-20T17:35:57.941Z,68.71
2019-06-20T17:41:04.078Z,67.57
2019-06-20T17:46:10.570Z,67.75
2019-06-20T17:51:16.704Z,66.52
2019-06-20T17:56:22.350Z,67.54
2019-06-20T18:01:28.069Z,67.50
2019-06-20T18:06:34.778Z,67.56
2019-06-20T18:11:40.189Z,66.43
2019-06-20T18:16:45.498Z,62.33
2019-06-20T18:21:50.852Z,63.94
2019-06-20T18:26:56.218Z,63.66
2019-06-20T18:32:01.995Z,65.42
2019-06-20T18:37:07.360Z,63.63
2019-06-20T18:42:12.710Z,64.31
2019-06-20T18:47:21.795Z,64.38
2019-06-20T18:52:25.474Z,64.79
2019-06-20T18:57:31.064Z,65.81
2019-06-20T19:02:36.530Z,67.21
2019-06-20T19:07:42.385Z,67.06
2019-06-20T19:12:48.275Z,67.80
2019-06-20T19:17:54.484Z,69.83
2019-06-20T19:23:00.274Z,70.07
2019-06-20T19:28:05.669Z,68.95
2019-06-20T19:33:11.765Z,68.26
2019-06-20T19:38:17.438Z,73.41
2019-06-20T19:43:23.091Z,72.93
2019-06-20T19:48:29.243Z,75.24
2019-06-20T19:53:35.299Z,75.23
2019-06-20T19:58:40.565Z,75.83
2019-06-20T20:03:46.691Z,76.44
2019-06-20T20:08:53.252Z,77.26
2019-06-20T20:13:58.571Z,75.26
2019-06-20T20:19:03.827Z,74.97
2019-06-20T20:24:09.085Z,75.73
2019-06-20T20:29:15.509Z,74.58
2019-06-20T20:34:20.822Z,73.24
2019-06-20T20:39:26.196Z,73.16
2019-06-20T20:44:31.821Z,75.19
2019-06-20T20:49:37.798Z,74.92
2019-06-20T20:54:43.047Z,74.01
2019-06-20T20:59:48.323Z,75.34
2019-06-20T21:04:53.691Z,77.10
2019-06-20T21:09:59.184Z,75.54
2019-06-20T21:15:04.961Z,75.32
2019-06-20T21:20:10.632Z,74.91
2019-06-20T21:25:16.101Z,75.72
2019-06-20T21:30:21.446Z,75.91
2019-06-20T21:35:27.154Z,76.48
2019-06-20T21:40:32.463Z,76.89
2019-06-20T21:45:38.068Z,76.40
2019-06-20T21:50:43.674Z,76.67
2019-06-20T21:55:48.948Z,76.89
2019-06-20T22:00:57.689Z,76.34
2019-06-20T22:06:03.615Z,76.45
2019-06-20T22:11:08.849Z,76.47
2019-06-20T22:16:14.133Z,76.76
2019-06-20T22:21:19.386Z,76.41
2019-06-20T22:26:24.695Z,76.05
2019-06-20T22:31:29.889Z,76.59
2019-06-20T22:36:40.594Z,77.21
2019-06-20T22:41:43.141Z,77.97
2019-06-20T22:46:48.688Z,77.96
2019-06-20T22:51:53.941Z,77.57
2019-06-20T22:56:59.516Z,78.29
2019-06-20T23:02:04.773Z,78.89
2019-06-20T23:07:10.046Z,79.37
2019-06-20T23:12:15.363Z,79.94
2019-06-20T23:17:20.616Z,79.79
2019-06-20T23:22:25.889Z,80.37
2019-06-20T23:27:31.369Z,80.28
2019-06-20T23:32:37.424Z,80.18
2019-06-20T23:37:42.714Z,79.74
2019-06-20T23:42:48.248Z,79.44
2019-06-20T23:47:53.790Z,79.30
2019-06-20T23:53:07.573Z,79.65
2019-06-20T23:58:13.168Z,79.57
